Time;durP1;ratioP1;P1;durP2;ratioP2;P2;SDS_P1;SDS_P2;PMS_P1;PMS_P2;Temp;Humidity;BMP_temperature;BMP_pressure;BME280_temperature;BME280_humidity;BME280_pressure;Samples;Min_cycle;Max_cycle;Signal;HPM_P1;HPM_P2
2022/08/28 00:01:02;;;;;;;3.27;3.20;;;25.30;65.50;;;;;;5097590;27;43423;-74
2022/08/28 00:03:31;;;;;;;2.97;2.90;;;25.20;66.10;;;;;;5112405;27;43985;-75
2022/08/28 00:05:59;;;;;;;3.03;3.03;;;25.20;66.20;;;;;;5100310;27;44744;-74
2022/08/28 00:08:29;;;;;;;3.20;3.13;;;25.20;66.10;;;;;;5100338;27;44017;-74
2022/08/28 00:10:58;;;;;;;3.45;3.35;;;25.10;65.90;;;;;;5110327;27;44077;-74
2022/08/28 00:13:26;;;;;;;2.97;2.97;;;25.10;66.50;;;;;;5128644;27;45124;-75
2022/08/28 00:15:56;;;;;;;3.30;3.30;;;25.10;66.70;;;;;;5109525;27;44776;-73
2022/08/28 00:18:25;;;;;;;3.00;2.90;;;25.10;66.40;;;;;;5118697;27;43975;-74
2022/08/28 00:20:53;;;;;;;2.80;2.80;;;25.30;65.90;;;;;;5109188;27;43949;-75
2022/08/28 00:23:21;;;;;;;3.30;3.20;;;25.30;65.70;;;;;;5108638;27;44089;-75
2022/08/28 00:25:49;;;;;;;3.10;3.10;;;25.40;65.80;;;;;;5115652;27;43994;-74
2022/08/28 00:28:18;;;;;;;2.83;2.83;;;25.30;65.60;;;;;;5100896;27;43903;-74
2022/08/28 00:30:53;;;;;;;2.97;2.97;;;25.20;65.90;;;;;;5109725;27;44114;-74
2022/08/28 00:33:24;;;;;;;3.00;3.00;;;25.20;66.30;;;;;;5128504;27;44078;-74
2022/08/28 00:35:53;;;;;;;3.03;2.93;;;25.20;66.30;;;;;;5090896;27;44423;-75
2022/08/28 00:38:21;;;;;;;2.97;2.90;;;25.10;66.20;;;;;;5089987;27;43458;-75
2022/08/28 00:40:51;;;;;;;3.05;3.05;;;25.10;66.30;;;;;;5120956;27;43450;-74
2022/08/28 00:43:26;;;;;;;2.90;2.90;;;25.10;66.90;;;;;;5109823;27;46166;-74
2022/08/28 00:45:54;;;;;;;2.97;2.97;;;25.00;67.40;;;;;;5107904;27;44120;-74
2022/08/28 00:48:22;;;;;;;2.60;2.60;;;25.00;66.50;;;;;;5108639;27;44133;-75
2022/08/28 00:53:37;;;;;;;2.67;2.67;;;25.00;67.10;;;;;;5086224;27;43910;-75
2022/08/28 00:56:07;;;;;;;2.83;2.83;;;25.00;67.00;;;;;;5108182;27;43399;-75
2022/08/28 00:58:43;;;;;;;2.90;2.90;;;25.10;66.60;;;;;;5089734;27;44155;-75
2022/08/28 01:01:11;;;;;;;3.00;3.00;;;25.20;66.00;;;;;;5089977;27;43343;-74
2022/08/28 01:03:39;;;;;;;2.70;2.70;;;25.30;65.90;;;;;;5108509;27;43919;-74
2022/08/28 01:06:07;;;;;;;2.88;2.88;;;25.30;65.80;;;;;;5107857;27;43919;-74
2022/08/28 01:08:36;;;;;;;2.70;2.70;;;25.20;65.80;;;;;;5107520;27;43943;-74
2022/08/28 01:11:04;;;;;;;2.70;2.70;;;25.20;66.40;;;;;;5123930;27;44060;-74
2022/08/28 01:13:32;;;;;;;2.90;2.90;;;25.10;66.40;;;;;;5108154;27;44335;-74
2022/08/28 01:16:02;;;;;;;2.70;2.70;;;25.10;66.40;;;;;;5089273;27;44772;-74
2022/08/28 01:18:31;;;;;;;2.70;2.70;;;25.10;66.20;;;;;;5113684;27;44331;-75
2022/08/28 01:21:04;;;;;;;2.53;2.53;;;25.00;66.90;;;;;;5089358;27;44165;-74
2022/08/28 01:23:55;;;;;;;2.63;2.63;;;25.00;66.80;;;;;;5107732;27;43926;-75
2022/08/28 01:26:24;;;;;;;2.80;2.80;;;25.10;66.30;;;;;;5101380;27;43979;-75
2022/08/28 01:28:52;;;;;;;2.60;2.60;;;25.30;65.90;;;;;;5122620;27;43931;-74
2022/08/28 01:31:20;;;;;;;2.50;2.50;;;25.40;65.80;;;;;;5128127;27;44235;-75
2022/08/28 01:33:48;;;;;;;2.53;2.53;;;25.40;65.80;;;;;;5126973;27;43968;-73
2022/08/28 01:36:17;;;;;;;2.45;2.45;;;25.30;65.70;;;;;;5127152;27;44899;-75
2022/08/28 01:38:48;;;;;;;2.75;2.75;;;25.20;66.90;;;;;;5127504;27;43829;-74
2022/08/28 01:41:17;;;;;;;2.70;2.70;;;25.20;66.30;;;;;;5125484;27;44061;-74
2022/08/28 01:43:45;;;;;;;2.83;2.83;;;25.20;66.40;;;;;;5107444;27;43924;-74
2022/08/28 01:46:13;;;;;;;2.60;2.60;;;25.10;66.20;;;;;;5107291;27;43814;-73
2022/08/28 01:48:43;;;;;;;2.30;2.30;;;25.10;66.60;;;;;;5104250;27;44050;-75
2022/08/28 01:51:11;;;;;;;2.20;2.20;;;25.00;66.90;;;;;;5118093;27;43991;-73
2022/08/28 01:53:40;;;;;;;2.60;2.60;;;25.00;66.90;;;;;;5107371;27;44008;-73
2022/08/28 01:56:11;;;;;;;2.40;2.40;;;25.00;66.70;;;;;;5107588;27;44448;-74
2022/08/28 01:58:40;;;;;;;2.40;2.40;;;25.00;66.80;;;;;;5088965;27;43347;-74
2022/08/28 02:01:09;;;;;;;2.42;2.42;;;25.00;67.30;;;;;;5105662;27;44076;-74
2022/08/28 02:03:37;;;;;;;2.40;2.40;;;25.00;67.00;;;;;;5127097;27;44089;-73
2022/08/28 02:06:06;;;;;;;2.40;2.40;;;25.10;66.60;;;;;;5126455;27;44022;-74
2022/08/28 02:08:35;;;;;;;2.42;2.42;;;25.30;66.10;;;;;;5127240;27;43905;-75
2022/08/28 02:11:03;;;;;;;2.30;2.30;;;25.30;66.00;;;;;;5127511;27;43844;-74
2022/08/28 02:13:32;;;;;;;2.40;2.40;;;25.30;66.00;;;;;;5126788;27;44049;-75
2022/08/28 02:16:02;;;;;;;2.40;2.40;;;25.20;65.90;;;;;;5126538;27;44109;-75
2022/08/28 02:18:30;;;;;;;2.38;2.38;;;25.10;66.40;;;;;;5126916;27;43990;-74
2022/08/28 02:20:58;;;;;;;2.50;2.50;;;25.10;66.50;;;;;;5126587;27;44011;-74
2022/08/28 02:23:26;;;;;;;2.40;2.40;;;25.10;66.50;;;;;;5115666;27;43927;-74
2022/08/28 02:25:54;;;;;;;2.57;2.57;;;25.10;66.40;;;;;;5111248;27;43964;-75
2022/08/28 02:28:22;;;;;;;2.30;2.30;;;25.00;67.00;;;;;;5126329;27;43794;-74
2022/08/28 02:30:50;;;;;;;2.37;2.37;;;25.00;67.00;;;;;;5115535;27;44114;-75
2022/08/28 02:33:20;;;;;;;2.30;2.30;;;25.10;66.60;;;;;;5118412;27;43599;-74
2022/08/28 02:35:48;;;;;;;2.50;2.40;;;25.20;66.00;;;;;;5108132;27;43919;-75
2022/08/28 02:38:16;;;;;;;2.22;2.22;;;25.30;65.90;;;;;;5106927;27;43900;-75
2022/08/28 02:40:45;;;;;;;2.83;2.73;;;25.30;65.90;;;;;;5107174;27;44252;-74
2022/08/28 02:43:13;;;;;;;2.20;2.20;;;25.30;66.00;;;;;;5106977;27;43997;-74
2022/08/28 02:45:41;;;;;;;2.30;2.30;;;25.20;67.00;;;;;;5106923;27;44002;-74
2022/08/28 02:48:09;;;;;;;2.60;2.60;;;25.20;66.60;;;;;;5106369;27;43777;-75
2022/08/28 02:50:45;;;;;;;2.30;2.30;;;25.10;66.50;;;;;;5107170;27;43857;-75
2022/08/28 02:53:14;;;;;;;2.40;2.40;;;25.10;66.50;;;;;;5106242;27;44181;-74
2022/08/28 02:55:42;;;;;;;2.40;2.40;;;25.00;66.70;;;;;;5087872;27;44866;-74
2022/08/28 02:58:09;;;;;;;2.40;2.30;;;25.00;67.10;;;;;;5087438;27;43402;-74
2022/08/28 03:00:38;;;;;;;2.40;2.40;;;25.00;67.10;;;;;;5107680;27;43396;-74
2022/08/28 03:03:07;;;;;;;2.40;2.40;;;25.00;66.90;;;;;;5109971;27;43813;-75
2022/08/28 03:05:35;;;;;;;2.30;2.30;;;24.90;67.50;;;;;;5091808;27;44322;-75
2022/08/28 03:08:04;;;;;;;2.20;2.20;;;24.90;67.50;;;;;;5108970;27;43383;-74
2022/08/28 03:10:32;;;;;;;2.40;2.40;;;24.90;67.20;;;;;;5123861;27;43661;-76
2022/08/28 03:13:00;;;;;;;2.30;2.30;;;25.00;66.60;;;;;;5090390;27;46065;-74
2022/08/28 03:15:30;;;;;;;2.23;2.23;;;25.20;66.20;;;;;;5109484;27;43942;-75
2022/08/28 03:17:58;;;;;;;2.22;2.22;;;25.30;65.90;;;;;;5109677;27;43899;-74
2022/08/28 03:20:26;;;;;;;2.70;2.67;;;25.30;65.90;;;;;;5110010;27;44079;-75
2022/08/28 03:25:40;;;;;;;2.30;2.30;;;25.20;66.30;;;;;;5113803;27;44117;-74
2022/08/28 03:28:08;;;;;;;2.20;2.20;;;25.10;66.50;;;;;;5108991;27;43394;-75
2022/08/28 03:30:36;;;;;;;2.28;2.28;;;25.10;66.60;;;;;;5110657;27;44167;-74
2022/08/28 03:33:04;;;;;;;2.20;2.20;;;25.10;66.50;;;;;;5090924;27;46473;-75
2022/08/28 03:35:32;;;;;;;2.10;2.10;;;25.00;66.80;;;;;;5091397;27;44749;-74
2022/08/28 03:38:00;;;;;;;2.17;2.17;;;25.00;67.10;;;;;;5090593;27;43570;-74
2022/08/28 03:40:29;;;;;;;2.27;2.27;;;25.00;67.10;;;;;;5112603;27;43943;-75
2022/08/28 03:42:58;;;;;;;2.30;2.30;;;25.00;66.90;;;;;;5110216;27;46710;-75
2022/08/28 03:45:26;;;;;;;2.30;2.20;;;24.90;66.80;;;;;;5129272;27;44025;-74
2022/08/28 03:47:54;;;;;;;2.20;2.20;;;24.90;67.40;;;;;;5129084;27;43935;-74
2022/08/28 03:50:23;;;;;;;2.20;2.20;;;25.00;67.30;;;;;;5129879;27;44066;-74
2022/08/28 03:52:51;;;;;;;2.30;2.30;;;25.00;66.80;;;;;;5102891;27;47033;-75
2022/08/28 03:55:19;;;;;;;2.13;2.13;;;25.20;66.30;;;;;;5129064;27;44035;-75
2022/08/28 03:57:47;;;;;;;1.97;1.97;;;25.20;66.20;;;;;;5129049;27;43888;-75
2022/08/28 04:00:17;;;;;;;1.80;1.80;;;25.20;66.20;;;;;;5130168;27;43874;-75
2022/08/28 04:02:45;;;;;;;2.10;2.10;;;25.20;66.20;;;;;;5128936;27;43996;-74
2022/08/28 04:05:16;;;;;;;2.37;2.37;;;25.10;66.60;;;;;;5129066;27;43892;-75
2022/08/28 04:07:43;;;;;;;2.10;2.10;;;25.10;66.90;;;;;;5128640;27;44066;-74
2022/08/28 04:10:12;;;;;;;2.20;2.20;;;25.00;66.80;;;;;;5110678;27;43560;-75
2022/08/28 04:12:40;;;;;;;2.10;2.10;;;25.00;66.60;;;;;;5109401;27;46635;-74
2022/08/28 04:15:09;;;;;;;2.10;2.10;;;25.00;67.10;;;;;;5109586;27;44432;-74
2022/08/28 04:17:39;;;;;;;2.10;2.10;;;25.00;67.30;;;;;;5110496;27;43878;-74
2022/08/28 04:20:09;;;;;;;2.17;2.17;;;25.00;67.20;;;;;;5093023;27;43949;-74
2022/08/28 04:22:37;;;;;;;2.20;2.20;;;24.90;66.70;;;;;;5090293;27;45659;-74
2022/08/28 04:25:06;;;;;;;2.20;2.20;;;24.90;67.40;;;;;;5108532;27;44040;-74
2022/08/28 04:27:34;;;;;;;2.23;2.23;;;24.90;67.60;;;;;;5127148;27;43988;-74
2022/08/28 04:30:02;;;;;;;2.00;2.00;;;25.00;67.20;;;;;;5128290;27;43861;-74
2022/08/28 04:32:30;;;;;;;2.20;2.20;;;25.10;66.70;;;;;;5128671;27;43930;-75
2022/08/28 04:34:59;;;;;;;2.07;2.07;;;25.20;66.10;;;;;;5127903;27;43888;-74
2022/08/28 04:37:27;;;;;;;2.10;2.10;;;25.30;66.00;;;;;;5128702;27;44018;-75
2022/08/28 04:39:56;;;;;;;2.20;2.20;;;25.30;66.00;;;;;;5123458;27;43283;-74
2022/08/28 04:42:24;;;;;;;2.10;2.10;;;25.30;66.10;;;;;;5120706;27;44717;-75
2022/08/28 04:44:55;;;;;;;2.00;2.00;;;25.20;66.40;;;;;;5104558;27;44195;-74
2022/08/28 04:47:23;;;;;;;1.97;1.97;;;25.10;66.60;;;;;;5128237;27;43923;-75
2022/08/28 04:49:51;;;;;;;2.00;2.00;;;25.10;66.60;;;;;;5128767;27;44045;-74
2022/08/28 04:52:21;;;;;;;1.87;1.87;;;25.00;66.40;;;;;;5128859;27;43928;-74
2022/08/28 04:54:49;;;;;;;2.00;2.00;;;25.00;67.00;;;;;;5109522;27;44166;-75
2022/08/28 04:57:17;;;;;;;1.90;1.90;;;25.00;67.20;;;;;;5108962;27;44010;-75
2022/08/28 04:59:45;;;;;;;2.00;2.00;;;25.00;67.10;;;;;;5109162;27;43396;-74
2022/08/28 05:02:13;;;;;;;2.00;2.00;;;25.00;66.80;;;;;;5127694;27;44718;-74
2022/08/28 05:04:41;;;;;;;1.73;1.73;;;24.90;67.20;;;;;;5128648;27;44085;-74
2022/08/28 05:07:09;;;;;;;1.90;1.90;;;24.90;67.60;;;;;;5128477;27;43797;-75
2022/08/28 05:09:38;;;;;;;1.90;1.90;;;24.90;67.40;;;;;;5110453;27;43979;-74
2022/08/28 05:12:06;;;;;;;2.03;2.03;;;24.90;67.10;;;;;;5128772;27;43893;-75
2022/08/28 05:14:35;;;;;;;1.80;1.80;;;24.90;67.00;;;;;;5128569;27;44022;-75
2022/08/28 05:17:03;;;;;;;2.10;2.10;;;24.80;67.70;;;;;;5109675;27;43904;-75
2022/08/28 05:19:32;;;;;;;1.80;1.80;;;24.90;67.60;;;;;;5128594;27;44070;-75
2022/08/28 05:22:00;;;;;;;2.00;2.00;;;25.00;67.00;;;;;;5114655;27;43930;-74
2022/08/28 05:24:28;;;;;;;1.90;1.90;;;25.10;66.50;;;;;;5127516;27;44063;-75
2022/08/28 05:26:57;;;;;;;1.90;1.90;;;25.20;66.00;;;;;;5121680;27;44000;-75
2022/08/28 05:29:25;;;;;;;2.00;2.00;;;25.30;66.10;;;;;;5115057;27;43960;-75
2022/08/28 05:31:53;;;;;;;2.03;2.03;;;25.30;66.10;;;;;;5102500;27;45778;-75
2022/08/28 05:34:22;;;;;;;1.90;1.90;;;25.20;66.30;;;;;;5128132;27;43971;-74
2022/08/28 05:36:50;;;;;;;1.90;1.90;;;25.10;66.50;;;;;;5121252;27;43856;-75
2022/08/28 05:39:18;;;;;;;2.10;2.10;;;25.10;66.60;;;;;;5128735;27;43890;-75
2022/08/28 05:41:46;;;;;;;2.00;2.00;;;25.10;66.60;;;;;;5089188;27;45828;-74
2022/08/28 05:44:16;;;;;;;2.17;2.17;;;25.00;66.70;;;;;;5107962;27;44073;-74
2022/08/28 05:46:46;;;;;;;1.83;1.83;;;25.00;67.30;;;;;;5108124;27;43386;-75
2022/08/28 05:49:14;;;;;;;1.95;1.95;;;24.90;67.20;;;;;;5108357;27;43982;-75
2022/08/28 05:51:42;;;;;;;1.70;1.70;;;24.90;67.10;;;;;;5089550;27;44246;-75
2022/08/28 05:54:10;;;;;;;1.90;1.90;;;24.90;67.00;;;;;;5108135;27;43921;-75
2022/08/28 05:56:39;;;;;;;1.87;1.87;;;24.90;67.70;;;;;;5108670;27;43442;-75
2022/08/28 05:59:07;;;;;;;1.80;1.80;;;24.80;67.50;;;;;;5107776;27;43492;-74
2022/08/28 06:01:39;;;;;;;1.90;1.90;;;24.80;67.30;;;;;;5121505;27;43960;-74
2022/08/28 06:04:09;;;;;;;1.90;1.90;;;24.80;66.90;;;;;;5127510;27;43969;-74
2022/08/28 06:06:38;;;;;;;1.80;1.80;;;24.80;67.90;;;;;;5127972;27;43948;-74
2022/08/28 06:09:07;;;;;;;1.90;1.90;;;24.90;67.70;;;;;;5127435;27;43971;-75
2022/08/28 06:11:37;;;;;;;1.87;1.87;;;24.90;67.20;;;;;;5109141;27;45312;-74
2022/08/28 06:14:10;;;;;;;2.00;2.00;;;25.10;66.70;;;;;;5127154;27;43962;-74
2022/08/28 06:16:41;;;;;;;1.70;1.70;;;25.20;66.20;;;;;;5127638;27;43934;-75
2022/08/28 06:19:09;;;;;;;1.77;1.77;;;25.20;66.10;;;;;;5127966;27;44011;-74
2022/08/28 06:21:37;;;;;;;2.10;2.10;;;25.20;66.10;;;;;;5127483;27;44712;-75
2022/08/28 06:24:05;;;;;;;1.80;1.80;;;25.10;66.20;;;;;;5127571;27;44002;-74
2022/08/28 06:26:33;;;;;;;1.97;1.97;;;25.10;66.60;;;;;;5108670;27;43982;-74
2022/08/28 06:29:02;;;;;;;1.90;1.90;;;25.10;66.80;;;;;;5127196;27;43941;-74
2022/08/28 06:31:30;;;;;;;1.97;1.97;;;25.00;66.70;;;;;;5117427;27;43996;-74
2022/08/28 06:34:02;;;;;;;1.83;1.83;;;25.00;66.60;;;;;;5107186;27;43985;-75
2022/08/28 06:36:30;;;;;;;1.80;1.80;;;24.90;67.30;;;;;;5095393;27;44061;-74
2022/08/28 06:38:59;;;;;;;1.90;1.90;;;24.90;67.30;;;;;;5118418;27;43884;-75
2022/08/28 06:41:27;;;;;;;2.05;1.95;;;24.90;67.20;;;;;;5133824;27;44105;-74
2022/08/28 06:43:57;;;;;;;1.70;1.70;;;24.80;66.90;;;;;;5114892;27;44159;-74
2022/08/28 06:46:25;;;;;;;2.00;2.00;;;24.80;67.60;;;;;;5134247;27;43970;-75
2022/08/28 06:48:53;;;;;;;1.90;1.90;;;24.80;67.30;;;;;;5133658;27;44033;-75
2022/08/28 06:51:22;;;;;;;1.87;1.87;;;25.00;66.90;;;;;;5133835;27;44957;-75
2022/08/28 06:53:52;;;;;;;1.90;1.90;;;25.10;66.40;;;;;;5133424;27;44125;-73
2022/08/28 06:56:21;;;;;;;1.63;1.63;;;25.10;66.30;;;;;;5134041;27;43423;-74
2022/08/28 06:58:54;;;;;;;1.77;1.77;;;25.10;66.30;;;;;;5115172;27;43933;-74
2022/08/28 07:01:24;;;;;;;1.90;1.90;;;25.10;66.20;;;;;;5133893;27;43961;-74
2022/08/28 07:03:53;;;;;;;1.90;1.90;;;25.00;66.70;;;;;;5133413;27;44043;-74
2022/08/28 07:06:22;;;;;;;2.00;2.00;;;25.00;66.90;;;;;;5115002;27;43940;-74
2022/08/28 07:08:50;;;;;;;1.80;1.80;;;24.90;66.80;;;;;;5121324;27;44159;-74
2022/08/28 07:11:20;;;;;;;1.80;1.80;;;24.90;66.60;;;;;;5126868;27;43966;-74
2022/08/28 07:13:53;;;;;;;2.10;2.10;;;24.90;67.40;;;;;;5126862;27;44029;-74
2022/08/28 07:16:22;;;;;;;1.90;1.90;;;24.80;67.30;;;;;;5113902;27;43814;-74
2022/08/28 07:18:51;;;;;;;1.97;1.97;;;24.80;67.20;;;;;;5095323;27;44015;-74
2022/08/28 07:21:19;;;;;;;1.60;1.60;;;24.80;66.90;;;;;;5133741;27;44020;-74
2022/08/28 07:23:48;;;;;;;1.77;1.77;;;24.80;67.70;;;;;;5133259;27;44013;-74
2022/08/28 07:26:18;;;;;;;1.90;1.90;;;24.80;67.60;;;;;;5114903;27;43415;-74
2022/08/28 07:28:46;;;;;;;1.83;1.83;;;24.80;67.00;;;;;;5126174;27;44157;-74
2022/08/28 07:31:15;;;;;;;1.70;1.70;;;25.00;66.70;;;;;;5127803;27;44782;-74
2022/08/28 07:33:43;;;;;;;1.97;1.97;;;25.10;66.20;;;;;;5125934;27;44057;-75
2022/08/28 07:36:15;;;;;;;1.63;1.63;;;25.10;66.20;;;;;;5095908;27;43928;-73
2022/08/28 07:38:59;;;;;;;1.80;1.80;;;25.10;66.90;;;;;;5133496;27;43991;-74
2022/08/28 07:41:27;;;;;;;1.80;1.80;;;25.00;66.10;;;;;;5114449;27;46178;-74
2022/08/28 07:46:41;;;;;;;1.60;1.60;;;24.90;66.40;;;;;;5111679;27;43952;-74
2022/08/28 07:49:09;;;;;;;1.80;1.80;;;24.80;66.50;;;;;;5091950;27;44004;-74
2022/08/28 07:51:37;;;;;;;1.73;1.73;;;24.80;66.70;;;;;;5129964;27;43962;-74
2022/08/28 07:54:07;;;;;;;1.70;1.70;;;24.80;66.90;;;;;;5129446;27;43931;-74
2022/08/28 07:56:44;;;;;;;1.60;1.60;;;24.70;67.00;;;;;;5091162;27;44017;-74
2022/08/28 07:59:12;;;;;;;1.63;1.63;;;24.70;68.10;;;;;;5123745;27;44034;-74
2022/08/28 08:01:43;;;;;;;1.80;1.80;;;24.80;67.80;;;;;;5091205;27;46307;-74
2022/08/28 08:04:12;;;;;;;1.60;1.60;;;24.90;66.90;;;;;;5109686;27;44039;-73
2022/08/28 08:06:40;;;;;;;1.53;1.53;;;25.10;66.20;;;;;;5124886;27;44311;-74
2022/08/28 08:09:11;;;;;;;1.40;1.40;;;25.30;65.30;;;;;;5130062;27;44160;-74
2022/08/28 08:11:40;;;;;;;1.50;1.50;;;25.60;64.40;;;;;;5114313;27;44974;-75
2022/08/28 08:14:08;;;;;;;1.70;1.70;;;25.90;63.50;;;;;;5118409;27;43987;-74
2022/08/28 08:16:37;;;;;;;1.60;1.60;;;26.10;62.70;;;;;;5129826;27;44131;-75
2022/08/28 08:19:08;;;;;;;1.70;1.70;;;26.30;62.10;;;;;;5130098;27;43645;-73
2022/08/28 08:21:36;;;;;;;1.58;1.58;;;26.50;61.50;;;;;;5129464;27;44777;-73
2022/08/28 08:24:04;;;;;;;1.63;1.63;;;26.60;61.10;;;;;;5110222;27;45950;-74
2022/08/28 08:26:34;;;;;;;1.80;1.70;;;26.70;60.80;;;;;;5129242;27;43991;-74
2022/08/28 08:29:02;;;;;;;1.60;1.60;;;26.70;60.50;;;;;;5109826;27;44005;-75
2022/08/28 08:31:31;;;;;;;1.50;1.50;;;26.70;60.60;;;;;;5129407;27;44941;-73
2022/08/28 08:34:00;;;;;;;1.63;1.63;;;26.60;61.20;;;;;;5118874;27;43957;-74
2022/08/28 08:36:28;;;;;;;1.60;1.60;;;26.30;61.60;;;;;;5109093;27;43916;-74
2022/08/28 08:38:57;;;;;;;1.90;1.80;;;26.10;62.50;;;;;;5125981;27;44066;-74
2022/08/28 08:41:29;;;;;;;1.63;1.63;;;26.00;62.80;;;;;;5128554;27;43956;-75
2022/08/28 08:44:00;;;;;;;1.52;1.52;;;25.90;63.30;;;;;;5109834;27;45546;-74
2022/08/28 08:46:32;;;;;;;1.60;1.60;;;25.70;63.70;;;;;;5129044;27;44002;-73
2022/08/28 08:49:02;;;;;;;1.65;1.65;;;25.60;64.20;;;;;;5129226;27;43822;-74
2022/08/28 08:51:39;;;;;;;1.73;1.73;;;25.50;64.60;;;;;;5091208;27;45437;-75
2022/08/28 08:54:10;;;;;;;1.70;1.70;;;25.60;64.30;;;;;;5109115;27;43965;-75
2022/08/28 08:56:39;;;;;;;2.97;1.80;;;25.60;64.00;;;;;;5122846;27;44040;-74
2022/08/28 08:59:10;;;;;;;1.90;1.90;;;25.70;64.00;;;;;;5089612;27;44101;-73
2022/08/28 09:01:41;;;;;;;1.80;1.80;;;25.60;64.30;;;;;;5090132;27;46148;-75
2022/08/28 09:04:14;;;;;;;1.80;1.70;;;25.50;64.60;;;;;;5108595;27;43999;-75
2022/08/28 09:06:44;;;;;;;1.70;1.70;;;25.40;65.20;;;;;;5108844;27;43400;-74
2022/08/28 09:09:17;;;;;;;1.77;1.77;;;25.30;65.40;;;;;;5106086;27;44006;-75
2022/08/28 09:11:48;;;;;;;1.80;1.80;;;25.20;65.50;;;;;;5128622;27;44449;-74
2022/08/28 09:14:27;;;;;;;1.70;1.70;;;25.10;65.50;;;;;;5117617;27;43998;-75
2022/08/28 09:16:56;;;;;;;1.73;1.73;;;25.10;66.20;;;;;;5119883;27;44019;-74
2022/08/28 09:19:24;;;;;;;1.80;1.80;;;25.10;66.30;;;;;;5128876;27;43863;-74
2022/08/28 09:21:52;;;;;;;1.70;1.70;;;25.00;66.30;;;;;;5109304;27;45772;-74
2022/08/28 09:24:22;;;;;;;2.00;1.80;;;25.00;66.20;;;;;;5123490;27;43958;-74
2022/08/28 09:26:55;;;;;;;1.80;1.80;;;24.90;66.50;;;;;;5089807;27;43990;-74
2022/08/28 09:29:32;;;;;;;2.00;2.00;;;24.90;67.60;;;;;;5090269;27;44006;-74
2022/08/28 09:32:22;;;;;;;2.20;2.00;;;25.00;66.50;;;;;;5088930;27;45172;-73
2022/08/28 09:35:06;;;;;;;1.90;1.80;;;25.10;65.90;;;;;;5107694;27;44312;-74
2022/08/28 09:37:35;;;;;;;1.90;1.90;;;25.30;65.40;;;;;;5089900;27;43390;-73
2022/08/28 09:40:21;;;;;;;1.93;1.83;;;25.40;65.20;;;;;;5107957;27;43957;-74
2022/08/28 09:45:58;;;;;;;1.73;1.73;;;25.30;65.40;;;;;;5096360;27;43995;-75
2022/08/28 09:48:31;;;;;;;2.20;2.20;;;25.20;65.90;;;;;;5089621;27;43972;-74
2022/08/28 09:51:02;;;;;;;1.90;1.90;;;25.10;65.90;;;;;;5107619;27;44304;-74
2022/08/28 09:53:31;;;;;;;2.10;2.07;;;25.10;66.40;;;;;;5107641;27;43571;-75
2022/08/28 09:56:09;;;;;;;1.90;1.90;;;25.00;66.20;;;;;;5107260;27;43456;-74
2022/08/28 09:58:39;;;;;;;2.03;2.03;;;25.00;67.40;;;;;;5108199;27;43999;-75
2022/08/28 10:01:43;;;;;;;2.23;2.13;;;24.90;66.70;;;;;;5089566;27;44250;-74
2022/08/28 10:04:21;;;;;;;1.90;1.90;;;24.90;66.50;;;;;;5100899;27;44133;-75
2022/08/28 10:06:51;;;;;;;1.90;1.90;;;24.80;66.80;;;;;;5105433;27;45127;-75
2022/08/28 10:09:22;;;;;;;2.10;2.10;;;24.80;67.00;;;;;;5110762;27;43879;-73
2022/08/28 10:11:53;;;;;;;4.30;2.73;;;24.90;66.70;;;;;;5107976;27;43834;-74
2022/08/28 10:14:36;;;;;;;3.93;3.10;;;25.00;61.90;;;;;;5107794;27;43946;-74
2022/08/28 10:17:10;;;;;;;5.33;2.87;;;25.00;60.10;;;;;;5089151;27;45965;-74
2022/08/28 10:19:43;;;;;;;9.57;3.17;;;25.10;59.50;;;;;;5108084;27;43519;-73
2022/08/28 10:22:22;;;;;;;81.23;6.93;;;25.10;62.10;;;;;;5101286;27;43464;-74
2022/08/28 10:25:02;;;;;;;96.67;7.43;;;25.00;63.20;;;;;;5106981;27;43977;-75
2022/08/28 10:27:38;;;;;;;19.93;4.03;;;24.90;59.40;;;;;;5088489;27;44924;-74
2022/08/28 10:30:09;;;;;;;12.73;3.47;;;24.90;62.00;;;;;;5106994;27;43956;-75
2022/08/28 10:32:51;;;;;;;12.73;4.00;;;24.80;63.50;;;;;;5107331;27;43813;-75
2022/08/28 10:35:21;;;;;;;4.47;3.77;;;24.80;63.20;;;;;;5107066;27;44767;-74
2022/08/28 10:37:55;;;;;;;6.70;3.50;;;24.70;59.50;;;;;;5106698;27;43935;-73
2022/08/28 10:40:24;;;;;;;4.87;3.57;;;24.70;62.50;;;;;;5107106;27;43799;-75
2022/08/28 10:42:56;;;;;;;7.20;3.47;;;24.70;63.10;;;;;;5106871;27;43835;-74
2022/08/28 10:45:24;;;;;;;3.83;3.53;;;24.70;62.50;;;;;;5104381;27;45941;-75
2022/08/28 10:47:55;;;;;;;5.97;3.27;;;24.70;58.80;;;;;;5126807;27;43830;-75
2022/08/28 10:50:25;;;;;;;9.00;3.30;;;24.70;58.30;;;;;;5117468;27;43955;-74
2022/08/28 10:52:56;;;;;;;5.83;3.10;;;24.70;57.80;;;;;;5107391;27;44150;-74
2022/08/28 10:55:26;;;;;;;3.67;2.90;;;24.70;57.70;;;;;;5107113;27;43885;-74
2022/08/28 10:57:57;;;;;;;3.27;2.67;;;24.80;59.40;;;;;;5124122;27;43413;-74
2022/08/28 11:00:26;;;;;;;3.13;2.97;;;24.80;61.00;;;;;;5126903;27;43944;-74
2022/08/28 11:02:57;;;;;;;3.97;3.63;;;24.70;61.30;;;;;;5126724;27;44061;-74
2022/08/28 11:05:26;;;;;;;4.30;3.40;;;24.70;58.50;;;;;;5103256;27;45361;-74
2022/08/28 11:07:55;;;;;;;3.00;2.80;;;24.60;60.10;;;;;;5106765;27;43925;-74
2022/08/28 11:10:45;;;;;;;3.37;3.20;;;24.60;61.30;;;;;;5107414;27;43810;-75
2022/08/28 11:13:13;;;;;;;4.00;3.27;;;24.60;61.60;;;;;;5088265;27;43936;-74
2022/08/28 11:15:49;;;;;;;4.27;3.07;;;24.60;58.50;;;;;;5114732;27;44141;-74
2022/08/28 11:18:45;;;;;;;4.77;3.40;;;24.50;58.00;;;;;;5126514;27;43954;-74
2022/08/28 11:21:16;;;;;;;8.83;3.20;;;24.60;57.60;;;;;;5120324;27;43864;-74
2022/08/28 11:23:47;;;;;;;5.47;3.57;;;24.70;57.40;;;;;;5111090;27;43353;-74
2022/08/28 11:26:24;;;;;;;3.43;3.13;;;24.70;57.40;;;;;;5117118;27;43750;-74
2022/08/28 11:28:53;;;;;;;4.30;3.40;;;24.70;59.50;;;;;;5109588;27;44045;-74
2022/08/28 11:31:39;;;;;;;4.30;3.77;;;24.70;59.30;;;;;;5110310;27;43987;-74
2022/08/28 11:34:08;;;;;;;4.30;3.90;;;24.60;58.20;;;;;;5121338;27;43993;-73
2022/08/28 11:36:57;;;;;;;3.47;3.17;;;24.60;59.00;;;;;;5130001;27;43963;-74
2022/08/28 11:39:25;;;;;;;3.47;3.17;;;24.60;61.10;;;;;;5129925;27;43959;-74
2022/08/28 11:42:27;;;;;;;4.20;3.90;;;24.50;61.00;;;;;;5129683;27;43920;-74
2022/08/28 11:44:55;;;;;;;3.70;3.40;;;24.50;58.00;;;;;;5130020;27;43345;-73
2022/08/28 11:47:52;;;;;;;3.33;2.90;;;24.50;59.20;;;;;;5129740;27;43941;-74
2022/08/28 11:50:29;;;;;;;3.30;3.10;;;24.50;60.30;;;;;;5101273;27;44714;-74
2022/08/28 11:53:37;;;;;;;6.93;3.43;;;24.40;60.30;;;;;;5108807;27;43906;-74
2022/08/28 11:56:33;;;;;;;4.23;3.20;;;24.40;57.90;;;;;;5027788;28;44302;-74
2022/08/28 11:59:10;;;;;;;3.33;3.03;;;24.50;58.40;;;;;;5037757;28;44023;-74
2022/08/28 12:01:39;;;;;;;4.17;3.33;;;24.60;58.30;;;;;;5093677;27;43465;-74
2022/08/28 12:04:07;;;;;;;3.23;3.03;;;24.70;58.10;;;;;;5105591;27;43432;-75
2022/08/28 12:07:19;;;;;;;6.30;3.43;;;24.70;58.60;;;;;;5122830;27;44243;-74
2022/08/28 12:09:47;;;;;;;6.60;3.40;;;24.60;59.60;;;;;;5090921;27;45656;-74
2022/08/28 12:12:49;;;;;;;4.27;3.63;;;24.60;59.10;;;;;;5109283;27;44021;-74
2022/08/28 12:15:39;;;;;;;3.40;3.20;;;24.60;58.90;;;;;;5123124;27;43830;-74
2022/08/28 12:18:13;;;;;;;3.10;2.90;;;24.50;59.60;;;;;;5287163;22;43496;-73
2022/08/28 12:20:57;;;;;;;4.73;3.60;;;24.50;60.80;;;;;;5087332;28;43749;-74
2022/08/28 12:26:37;;;;;;;3.73;3.10;;;24.50;58.80;;;;;;4986345;28;43991;-75
2022/08/28 12:29:06;;;;;;;3.33;3.13;;;24.50;60.20;;;;;;4989770;28;43365;-77
2022/08/28 12:32:14;;;;;;;5.27;3.67;;;24.40;59.60;;;;;;4988523;28;43875;-75
2022/08/28 12:35:03;;;;;;;4.07;3.70;;;24.40;59.00;;;;;;4988337;28;43408;-75
2022/08/28 12:37:34;;;;;;;4.63;3.70;;;24.40;59.10;;;;;;4988622;28;43457;-77
2022/08/28 12:40:21;;;;;;;6.87;4.00;;;24.50;59.00;;;;;;4987430;28;43920;-76
2022/08/28 12:42:52;;;;;;;4.47;4.00;;;24.60;58.60;;;;;;4988033;28;43944;-76
2022/08/28 12:45:27;;;;;;;4.83;3.90;;;24.70;58.50;;;;;;4982331;28;43425;-76
2022/08/28 12:47:59;;;;;;;4.30;4.00;;;24.70;59.00;;;;;;4986728;28;43346;-77
2022/08/28 12:50:30;;;;;;;4.53;4.03;;;24.70;59.80;;;;;;4988683;28;43608;-77
2022/08/28 12:52:59;;;;;;;4.57;4.10;;;24.60;58.70;;;;;;4987944;28;43978;-74
2022/08/28 12:55:29;;;;;;;5.73;3.60;;;24.60;59.20;;;;;;5003002;28;44733;-76
2022/08/28 12:57:57;;;;;;;3.73;3.43;;;24.50;59.20;;;;;;4987795;28;43372;-75
2022/08/28 13:00:26;;;;;;;4.87;3.60;;;24.50;59.40;;;;;;4987053;28;43495;-76
2022/08/28 13:02:55;;;;;;;4.03;3.73;;;24.50;59.20;;;;;;4987907;28;43864;-76
2022/08/28 13:05:33;;;;;;;4.27;3.97;;;24.50;59.70;;;;;;4992321;28;45491;-75
2022/08/28 13:08:03;;;;;;;4.83;4.00;;;24.50;60.00;;;;;;4987698;28;43378;-75
2022/08/28 13:10:35;;;;;;;3.70;3.50;;;24.70;60.20;;;;;;4988432;28;43340;-76
2022/08/28 13:13:05;;;;;;;3.60;3.40;;;24.70;60.10;;;;;;4987340;28;43601;-76
2022/08/28 13:15:52;;;;;;;3.70;3.50;;;24.80;60.20;;;;;;4987596;28;43290;-77
2022/08/28 13:19:09;;;;;;;3.30;3.17;;;24.70;59.70;;;;;;4986189;28;43966;-76
2022/08/28 13:21:38;;;;;;;3.67;3.47;;;24.70;60.90;;;;;;4996474;28;43989;-75